BUD weather

Budapest Liszt Ferenc International Airport
Budapest, Pest, Hungary

Public forecast

Using degrees Celsius for public forecast. Weather courtesy of forecast.io.

Current aviation weather report (METAR) for Budapest Liszt Ferenc International Airport

Retrieved 2020/04/05 14:00 UTC (1 minute ago):

LHBP 051400Z 10011KT 080V140 CAVOK 18/M01 Q1027 NOSIG

Aviation forecast (TAF) for Budapest Liszt Ferenc International Airport

Retrieved 2020/04/05 12:27 UTC (2 hours ago):

TAF TAF LHBP 051115Z 0512/0612 08012KT CAVOK TEMPO 0517/0606 05006KT BECMG 0605/0608 14009KT